sensor_id;sensor_type;location;lat;lon;timestamp;temperature;humidity
17813;DHT22;9030;50.792;8.320;2022-10-15T18:53:47;14.70;99.90
17813;DHT22;9030;50.792;8.320;2022-10-15T18:57:15;14.80;99.90
17813;DHT22;9030;50.792;8.320;2022-10-15T18:59:42;14.80;99.90
17813;DHT22;9030;50.792;8.320;2022-10-15T19:02:09;14.60;99.90
17813;DHT22;9030;50.792;8.320;2022-10-15T19:04:36;14.50;99.90
17813;DHT22;9030;50.792;8.320;2022-10-15T19:07:02;14.40;99.90
17813;DHT22;9030;50.792;8.320;2022-10-15T19:09:29;14.10;99.90
17813;DHT22;9030;50.792;8.320;2022-10-15T20:48:02;12.20;99.90
17813;DHT22;9030;50.792;8.320;2022-10-15T20:50:31;12.20;99.90
17813;DHT22;9030;50.792;8.320;2022-10-15T20:53:00;12.20;99.90
17813;DHT22;9030;50.792;8.320;2022-10-15T20:55:28;12.20;99.90
17813;DHT22;9030;50.792;8.320;2022-10-15T20:57:54;12.20;99.90
17813;DHT22;9030;50.792;8.320;2022-10-15T21:00:21;12.20;99.90
17813;DHT22;9030;50.792;8.320;2022-10-15T21:02:48;12.20;99.90
17813;DHT22;9030;50.792;8.320;2022-10-15T21:05:16;12.20;99.90
17813;DHT22;9030;50.792;8.320;2022-10-15T21:07:43;12.20;99.90
17813;DHT22;9030;50.792;8.320;2022-10-15T21:10:10;12.10;99.90
17813;DHT22;9030;50.792;8.320;2022-10-15T21:12:37;12.10;99.90
17813;DHT22;9030;50.792;8.320;2022-10-15T21:15:04;12.20;99.90
17813;DHT22;9030;50.792;8.320;2022-10-15T21:17:31;12.30;99.90
17813;DHT22;9030;50.792;8.320;2022-10-15T21:19:58;12.30;99.90
17813;DHT22;9030;50.792;8.320;2022-10-15T21:22:26;12.30;99.90
17813;DHT22;9030;50.792;8.320;2022-10-15T21:24:52;12.30;99.90
17813;DHT22;9030;50.792;8.320;2022-10-15T21:27:19;12.20;99.90
17813;DHT22;9030;50.792;8.320;2022-10-15T21:29:46;12.20;99.90
17813;DHT22;9030;50.792;8.320;2022-10-15T21:32:14;12.20;99.90
17813;DHT22;9030;50.792;8.320;2022-10-15T21:34:40;12.30;99.90
17813;DHT22;9030;50.792;8.320;2022-10-15T21:37:07;12.20;99.90
17813;DHT22;9030;50.792;8.320;2022-10-15T21:39:35;12.20;99.90
17813;DHT22;9030;50.792;8.320;2022-10-15T21:42:02;12.30;99.90
17813;DHT22;9030;50.792;8.320;2022-10-15T21:44:28;12.40;99.90
17813;DHT22;9030;50.792;8.320;2022-10-15T21:46:55;12.40;99.90
17813;DHT22;9030;50.792;8.320;2022-10-15T21:49:22;12.40;99.90
17813;DHT22;9030;50.792;8.320;2022-10-15T21:51:49;12.40;99.90
17813;DHT22;9030;50.792;8.320;2022-10-15T21:54:15;12.40;99.90
17813;DHT22;9030;50.792;8.320;2022-10-15T21:56:43;12.50;99.90
17813;DHT22;9030;50.792;8.320;2022-10-15T21:59:10;12.50;99.90
17813;DHT22;9030;50.792;8.320;2022-10-15T22:01:37;12.50;99.90
17813;DHT22;9030;50.792;8.320;2022-10-15T22:04:08;12.50;99.90
17813;DHT22;9030;50.792;8.320;2022-10-15T22:06:36;12.50;99.90
17813;DHT22;9030;50.792;8.320;2022-10-15T22:09:04;12.40;99.90
17813;DHT22;9030;50.792;8.320;2022-10-15T22:11:33;12.40;99.90
17813;DHT22;9030;50.792;8.320;2022-10-15T22:14:03;12.40;99.90
17813;DHT22;9030;50.792;8.320;2022-10-15T22:16:32;12.30;99.90
17813;DHT22;9030;50.792;8.320;2022-10-15T22:18:59;12.40;99.90
17813;DHT22;9030;50.792;8.320;2022-10-15T22:21:28;12.40;99.90
17813;DHT22;9030;50.792;8.320;2022-10-15T22:23:56;12.40;99.90
17813;DHT22;9030;50.792;8.320;2022-10-15T22:26:25;12.30;99.90
17813;DHT22;9030;50.792;8.320;2022-10-15T22:28:52;12.30;99.90
17813;DHT22;9030;50.792;8.320;2022-10-15T22:31:20;12.30;99.90
17813;DHT22;9030;50.792;8.320;2022-10-15T22:33:47;12.30;99.90
17813;DHT22;9030;50.792;8.320;2022-10-15T22:36:16;12.30;99.90
17813;DHT22;9030;50.792;8.320;2022-10-15T22:38:45;12.30;99.90
17813;DHT22;9030;50.792;8.320;2022-10-15T22:41:12;12.40;99.90
17813;DHT22;9030;50.792;8.320;2022-10-15T22:43:39;12.40;99.90
17813;DHT22;9030;50.792;8.320;2022-10-15T22:46:06;12.30;99.90
17813;DHT22;9030;50.792;8.320;2022-10-15T22:48:36;12.40;99.90
17813;DHT22;9030;50.792;8.320;2022-10-15T22:51:05;12.30;99.90
17813;DHT22;9030;50.792;8.320;2022-10-15T22:53:32;12.30;99.90
17813;DHT22;9030;50.792;8.320;2022-10-15T22:56:00;12.40;99.90
17813;DHT22;9030;50.792;8.320;2022-10-15T22:58:29;12.30;99.90
17813;DHT22;9030;50.792;8.320;2022-10-15T23:01:05;12.30;99.90
17813;DHT22;9030;50.792;8.320;2022-10-15T23:03:33;12.40;99.90
17813;DHT22;9030;50.792;8.320;2022-10-15T23:06:00;12.40;99.90
17813;DHT22;9030;50.792;8.320;2022-10-15T23:08:27;12.40;99.90
17813;DHT22;9030;50.792;8.320;2022-10-15T23:10:53;12.40;99.90
17813;DHT22;9030;50.792;8.320;2022-10-15T23:13:20;12.30;99.90
17813;DHT22;9030;50.792;8.320;2022-10-15T23:15:47;12.40;99.90
17813;DHT22;9030;50.792;8.320;2022-10-15T23:18:13;12.30;99.90
17813;DHT22;9030;50.792;8.320;2022-10-15T23:20:42;12.10;99.90
17813;DHT22;9030;50.792;8.320;2022-10-15T23:23:08;12.00;99.90
17813;DHT22;9030;50.792;8.320;2022-10-15T23:25:36;12.00;99.90
17813;DHT22;9030;50.792;8.320;2022-10-15T23:28:03;11.90;99.90
17813;DHT22;9030;50.792;8.320;2022-10-15T23:30:30;11.90;99.90
17813;DHT22;9030;50.792;8.320;2022-10-15T23:32:59;12.00;99.90
17813;DHT22;9030;50.792;8.320;2022-10-15T23:35:26;12.00;99.90
17813;DHT22;9030;50.792;8.320;2022-10-15T23:37:54;11.90;99.90
17813;DHT22;9030;50.792;8.320;2022-10-15T23:40:21;11.90;99.90
17813;DHT22;9030;50.792;8.320;2022-10-15T23:42:48;12.00;99.90
17813;DHT22;9030;50.792;8.320;2022-10-15T23:45:14;11.80;99.90
17813;DHT22;9030;50.792;8.320;2022-10-15T23:47:41;11.50;99.90
17813;DHT22;9030;50.792;8.320;2022-10-15T23:50:08;11.50;99.90
17813;DHT22;9030;50.792;8.320;2022-10-15T23:52:35;11.50;99.90
17813;DHT22;9030;50.792;8.320;2022-10-15T23:55:03;11.50;99.90
17813;DHT22;9030;50.792;8.320;2022-10-15T23:57:30;11.40;99.90
17813;DHT22;9030;50.792;8.320;2022-10-15T23:59:57;11.40;99.90
